createdAt,value
2023-05-08T00:01:31.874Z,98789.06
2023-05-08T00:03:59.626Z,98790.88
2023-05-08T00:06:29.534Z,98798.47
2023-05-08T00:08:56.958Z,98788.03
2023-05-08T00:11:24.469Z,98793.56
2023-05-08T00:13:52.192Z,98790.78
2023-05-08T00:16:19.388Z,98788.22
2023-05-08T00:18:46.856Z,98792.44
2023-05-08T00:21:13.956Z,98790.06
2023-05-08T00:23:41.542Z,98788.81
2023-05-08T00:26:09.016Z,98793.03
2023-05-08T00:28:36.126Z,98793.94
2023-05-08T00:31:03.473Z,98797.59
2023-05-08T00:33:31.333Z,98796.00
2023-05-08T00:36:04.773Z,98798.69
2023-05-08T00:38:32.826Z,98798.47
2023-05-08T00:41:00.113Z,98801.34
2023-05-08T00:43:30.445Z,98795.25
2023-05-08T00:45:59.881Z,98794.09
2023-05-08T00:48:32.688Z,98792.97
2023-05-08T00:50:59.928Z,98790.63
2023-05-08T00:53:27.284Z,98793.56
2023-05-08T00:55:54.494Z,98793.47
2023-05-08T00:58:22.058Z,98791.50
2023-05-08T01:00:49.708Z,98796.50
2023-05-08T01:03:17.188Z,98792.34
2023-05-08T01:05:44.635Z,98792.03
2023-05-08T01:08:12.006Z,98789.56
2023-05-08T01:11:02.658Z,98781.19
2023-05-08T01:13:54.268Z,98786.00
2023-05-08T01:16:27.546Z,98786.16
2023-05-08T01:19:21.767Z,98794.78
2023-05-08T01:22:05.557Z,98785.38
2023-05-08T01:24:57.618Z,98785.91
2023-05-08T01:27:42.299Z,98774.69
2023-05-08T01:30:28.490Z,98778.34
2023-05-08T01:32:57.884Z,98772.97
2023-05-08T01:35:37.416Z,98784.34
2023-05-08T01:38:15.685Z,98765.56
2023-05-08T01:40:57.086Z,98776.06
2023-05-08T01:43:30.280Z,98767.81
2023-05-08T01:45:58.046Z,98768.19
2023-05-08T01:48:32.503Z,98763.41
2023-05-08T01:51:07.308Z,98762.78
2023-05-08T01:53:45.398Z,98750.91
2023-05-08T01:56:15.344Z,98762.50
2023-05-08T01:58:43.081Z,98753.75
2023-05-08T02:01:12.739Z,98747.50
2023-05-08T02:03:41.571Z,98745.22
2023-05-08T02:06:09.526Z,98743.41
2023-05-08T02:08:37.208Z,98737.38
2023-05-08T02:11:04.530Z,98739.63
2023-05-08T02:13:32.400Z,98735.94
2023-05-08T02:16:00.136Z,98730.84
2023-05-08T02:18:27.104Z,98732.50
2023-05-08T02:20:56.450Z,98729.63
2023-05-08T02:23:24.448Z,98730.44
2023-05-08T02:25:51.607Z,98723.84
2023-05-08T02:28:19.382Z,98723.50
2023-05-08T02:30:46.636Z,98723.06
2023-05-08T02:33:14.109Z,98714.50
2023-05-08T02:35:42.728Z,98716.41
2023-05-08T02:38:10.653Z,98711.78
2023-05-08T02:40:40.203Z,98710.53
2023-05-08T02:43:08.112Z,98701.88
2023-05-08T02:45:58.490Z,98702.69
2023-05-08T02:48:34.601Z,98711.00
2023-05-08T02:51:06.060Z,98700.34
2023-05-08T02:53:37.402Z,98695.06
2023-05-08T02:56:16.461Z,98699.00
2023-05-08T02:59:14.830Z,98697.34
2023-05-08T03:01:47.386Z,98691.03
2023-05-08T03:04:23.180Z,98693.44
2023-05-08T03:06:50.486Z,98693.91
2023-05-08T03:09:21.197Z,98684.34
2023-05-08T03:11:49.966Z,98691.63
2023-05-08T03:14:20.682Z,98683.72
2023-05-08T03:16:48.139Z,98675.84
2023-05-08T03:19:21.775Z,98667.91
2023-05-08T03:21:51.417Z,98677.16
2023-05-08T03:24:18.853Z,98672.53
2023-05-08T03:26:47.270Z,98678.25
2023-05-08T03:29:14.929Z,98675.75
2023-05-08T03:31:42.557Z,98670.72
2023-05-08T03:34:10.067Z,98669.00
2023-05-08T03:36:37.443Z,98677.78
2023-05-08T03:39:04.791Z,98667.38
2023-05-08T03:41:32.347Z,98665.03
2023-05-08T03:43:59.897Z,98663.09
2023-05-08T03:46:26.954Z,98659.72
2023-05-08T03:48:55.997Z,98664.56
2023-05-08T03:51:23.446Z,98655.03
2023-05-08T03:53:51.574Z,98657.31
2023-05-08T03:56:19.332Z,98656.84
2023-05-08T03:59:00.985Z,98656.19
2023-05-08T04:01:52.010Z,98655.69
2023-05-08T04:04:33.049Z,98651.63
2023-05-08T04:07:06.236Z,98637.72
2023-05-08T04:10:25.490Z,98638.16
2023-05-08T04:12:52.905Z,98636.81
2023-05-08T04:15:23.116Z,98628.00
2023-05-08T04:17:57.458Z,98628.16
2023-05-08T04:20:27.645Z,98632.09
2023-05-08T04:22:55.752Z,98620.22
2023-05-08T04:25:24.442Z,98621.81
2023-05-08T04:27:52.887Z,98617.72
2023-05-08T04:30:22.089Z,98626.09
2023-05-08T04:32:50.302Z,98614.19
2023-05-08T04:35:17.851Z,98619.00
2023-05-08T04:37:46.084Z,98622.19
2023-05-08T04:40:13.585Z,98605.94
2023-05-08T04:42:43.691Z,98607.34
2023-05-08T04:45:11.577Z,98601.38
2023-05-08T04:47:39.571Z,98598.72
2023-05-08T04:50:07.391Z,98593.59
2023-05-08T04:52:35.880Z,98595.78
2023-05-08T04:55:03.331Z,98578.41
2023-05-08T04:57:33.973Z,98575.69
2023-05-08T05:00:01.662Z,98575.22
2023-05-08T05:02:30.753Z,98574.91
2023-05-08T05:05:01.184Z,98578.47
2023-05-08T05:07:29.611Z,98576.38
2023-05-08T05:09:57.083Z,98564.91
2023-05-08T05:12:24.494Z,98561.38
2023-05-08T05:14:52.459Z,98560.47
2023-05-08T05:17:19.915Z,98557.84
2023-05-08T05:19:47.411Z,98561.16
2023-05-08T05:22:14.828Z,98552.06
2023-05-08T05:24:42.181Z,98549.81
2023-05-08T05:27:09.596Z,98554.53
2023-05-08T05:29:36.748Z,98541.19
2023-05-08T05:32:04.165Z,98542.78
2023-05-08T05:34:31.497Z,98536.91
2023-05-08T05:36:58.853Z,98540.63
2023-05-08T05:39:27.165Z,98537.38
2023-05-08T05:41:54.663Z,98535.09
2023-05-08T05:44:22.014Z,98537.72
2023-05-08T05:46:49.870Z,98528.47
2023-05-08T05:49:17.532Z,98524.75
2023-05-08T05:51:44.658Z,98528.19
2023-05-08T05:54:12.052Z,98519.53
2023-05-08T05:56:39.528Z,98514.66
2023-05-08T05:59:07.336Z,98514.97
2023-05-08T06:01:34.689Z,98511.75
2023-05-08T06:04:02.426Z,98500.19
2023-05-08T06:06:29.668Z,98500.50
2023-05-08T06:08:57.560Z,98501.78
2023-05-08T06:11:24.608Z,98492.66
2023-05-08T06:13:52.436Z,98493.44
2023-05-08T06:16:22.882Z,98490.34
2023-05-08T06:18:50.298Z,98481.97
2023-05-08T06:21:17.539Z,98480.63
2023-05-08T06:23:45.024Z,98477.78
2023-05-08T06:26:12.104Z,98478.22
2023-05-08T06:28:39.482Z,98478.69
2023-05-08T06:31:06.739Z,98473.63
2023-05-08T06:33:34.165Z,98469.72
2023-05-08T06:36:01.493Z,98468.09
2023-05-08T06:38:29.061Z,98464.03
2023-05-08T06:40:56.768Z,98465.66
2023-05-08T06:43:24.205Z,98461.41
2023-05-08T06:45:53.169Z,98448.03
2023-05-08T06:48:20.511Z,98456.97
2023-05-08T06:50:48.301Z,98451.47
2023-05-08T06:53:15.788Z,98446.75
2023-05-08T06:55:43.537Z,98440.25
2023-05-08T06:58:10.792Z,98432.53
2023-05-08T07:00:37.998Z,98426.41
2023-05-08T07:03:05.348Z,98421.09
2023-05-08T07:05:33.090Z,98431.72
2023-05-08T07:08:00.311Z,98416.31
2023-05-08T07:10:27.580Z,98418.66
2023-05-08T07:12:55.124Z,98415.56
2023-05-08T07:15:26.338Z,98412.66
2023-05-08T07:17:55.126Z,98413.50
2023-05-08T07:20:23.904Z,98402.28
2023-05-08T07:22:51.468Z,98406.84
2023-05-08T07:25:18.536Z,98411.19
2023-05-08T07:27:46.188Z,98413.28
2023-05-08T07:30:13.724Z,98407.22
2023-05-08T07:32:41.154Z,98408.34
2023-05-08T07:35:11.383Z,98408.63
2023-05-08T07:37:42.026Z,98402.25
2023-05-08T07:40:09.329Z,98391.91
2023-05-08T07:42:43.082Z,98392.59
2023-05-08T07:45:12.163Z,98386.38
2023-05-08T07:47:48.131Z,98388.59
2023-05-08T07:50:15.707Z,98387.47
2023-05-08T07:52:43.373Z,98386.47
2023-05-08T07:55:11.476Z,98383.84
2023-05-08T07:57:39.860Z,98377.88
2023-05-08T08:00:08.735Z,98370.09
2023-05-08T08:02:42.683Z,98376.94
2023-05-08T08:05:10.346Z,98370.78
2023-05-08T08:07:37.998Z,98368.34
2023-05-08T08:10:05.628Z,98365.84
2023-05-08T08:12:32.942Z,98365.25
2023-05-08T08:15:00.121Z,98362.34
2023-05-08T08:17:28.889Z,98358.91
2023-05-08T08:19:57.136Z,98353.38
2023-05-08T08:22:25.252Z,98349.59
2023-05-08T08:24:55.072Z,98347.06
2023-05-08T08:27:23.319Z,98343.97
2023-05-08T08:29:52.591Z,98348.22
2023-05-08T08:32:26.519Z,98340.88
2023-05-08T08:34:54.002Z,98339.88
2023-05-08T08:37:21.530Z,98330.63
2023-05-08T08:39:49.051Z,98332.16
2023-05-08T08:42:16.283Z,98342.44
2023-05-08T08:44:43.775Z,98326.72
2023-05-08T08:47:14.003Z,98324.78
2023-05-08T08:49:47.296Z,98318.66
2023-05-08T08:52:43.874Z,98325.00
2023-05-08T08:55:12.727Z,98323.56
2023-05-08T08:57:42.020Z,98318.06
2023-05-08T09:00:09.811Z,98322.31
2023-05-08T09:02:37.325Z,98305.25
2023-05-08T09:05:04.945Z,98313.69
2023-05-08T09:07:32.412Z,98313.06
2023-05-08T09:09:59.770Z,98304.56
2023-05-08T09:12:26.926Z,98304.09
2023-05-08T09:14:54.198Z,98298.03
2023-05-08T09:17:21.860Z,98302.28
2023-05-08T09:19:49.558Z,98300.81
2023-05-08T09:22:17.164Z,98299.16
2023-05-08T09:25:03.206Z,98287.41
2023-05-08T09:27:31.371Z,98292.94
2023-05-08T09:30:02.617Z,98296.50
2023-05-08T09:32:31.790Z,98290.44
2023-05-08T09:34:59.419Z,98284.91
2023-05-08T09:37:27.161Z,98284.72
2023-05-08T09:39:54.798Z,98278.56
2023-05-08T09:42:23.308Z,98294.34
2023-05-08T09:44:54.223Z,98282.06
2023-05-08T09:47:22.830Z,98291.56
2023-05-08T09:50:09.667Z,98280.81
2023-05-08T09:52:38.054Z,98279.72
2023-05-08T09:55:09.658Z,98281.06
2023-05-08T09:57:39.113Z,98279.31
2023-05-08T10:00:09.488Z,98276.88
2023-05-08T10:02:41.964Z,98280.09
2023-05-08T10:05:26.340Z,98282.22
2023-05-08T10:07:53.842Z,98272.69
2023-05-08T10:10:28.414Z,98275.59
2023-05-08T10:12:56.564Z,98263.22
2023-05-08T10:15:32.923Z,98263.50
2023-05-08T10:18:05.120Z,98262.56
2023-05-08T10:20:33.400Z,98263.91
2023-05-08T10:23:00.668Z,98261.25
2023-05-08T10:25:31.773Z,98254.41
2023-05-08T10:28:24.541Z,98262.56
2023-05-08T10:30:51.905Z,98269.44
2023-05-08T10:33:22.363Z,98267.31
2023-05-08T10:35:49.756Z,98255.91
2023-05-08T10:38:17.356Z,98258.66
2023-05-08T10:40:44.647Z,98265.66
2023-05-08T10:43:11.973Z,98257.72
2023-05-08T10:45:39.381Z,98264.84
2023-05-08T10:48:21.765Z,98260.91
2023-05-08T10:51:01.432Z,98271.19
2023-05-08T10:53:49.684Z,98262.94
2023-05-08T10:56:16.911Z,98258.41
2023-05-08T10:58:44.454Z,98255.97
2023-05-08T11:01:12.448Z,98266.22
2023-05-08T11:03:46.721Z,98252.72
2023-05-08T11:06:14.433Z,98249.50
2023-05-08T11:08:49.833Z,98251.28
2023-05-08T11:11:26.546Z,98234.06
2023-05-08T11:14:06.639Z,98245.78
2023-05-08T11:17:04.704Z,98237.66
2023-05-08T11:19:32.202Z,98237.50
2023-05-08T11:22:19.532Z,98240.06
2023-05-08T11:25:01.538Z,98236.03
2023-05-08T11:27:50.867Z,98238.47
2023-05-08T11:30:27.992Z,98247.09
2023-05-08T11:33:12.458Z,98241.28
2023-05-08T11:35:58.632Z,98240.94
2023-05-08T11:38:36.546Z,98234.00
2023-05-08T11:41:07.733Z,98237.56
2023-05-08T11:43:37.770Z,98232.19
2023-05-08T11:46:06.129Z,98234.47
2023-05-08T11:48:33.768Z,98225.53
2023-05-08T11:51:01.146Z,98229.78
2023-05-08T11:53:31.367Z,98225.72
2023-05-08T11:55:59.824Z,98228.31
2023-05-08T11:58:27.275Z,98223.78
2023-05-08T12:00:55.003Z,98224.09
2023-05-08T12:03:23.000Z,98227.50
2023-05-08T12:05:50.467Z,98228.81
2023-05-08T12:08:18.135Z,98227.19
2023-05-08T12:10:51.895Z,98232.72
2023-05-08T12:13:20.390Z,98234.63
2023-05-08T12:15:49.959Z,98229.78
2023-05-08T12:18:17.589Z,98227.00
2023-05-08T12:20:45.574Z,98234.97
2023-05-08T12:23:12.966Z,98229.97
2023-05-08T12:25:40.336Z,98232.41
2023-05-08T12:28:08.320Z,98234.69
2023-05-08T12:30:36.995Z,98236.16
2023-05-08T12:33:05.113Z,98233.38
2023-05-08T12:35:32.473Z,98235.16
2023-05-08T12:38:04.681Z,98235.34
2023-05-08T12:40:33.725Z,98239.56
2023-05-08T12:43:02.820Z,98242.34
2023-05-08T12:45:32.899Z,98240.88
2023-05-08T12:48:04.914Z,98236.97
2023-05-08T12:50:40.132Z,98238.63
2023-05-08T12:53:17.685Z,98232.91
2023-05-08T12:55:52.882Z,98234.38
2023-05-08T12:58:20.903Z,98237.16
2023-05-08T13:00:49.679Z,98231.09
2023-05-08T13:03:28.418Z,98230.78
2023-05-08T13:05:57.099Z,98233.34
2023-05-08T13:08:37.561Z,98235.78
2023-05-08T13:11:06.358Z,98238.66
2023-05-08T13:13:34.370Z,98238.81
2023-05-08T13:16:06.261Z,98233.16
2023-05-08T13:18:36.857Z,98239.63
2023-05-08T13:21:04.532Z,98234.06
2023-05-08T13:23:31.887Z,98235.13
2023-05-08T13:25:59.242Z,98235.59
2023-05-08T13:28:26.878Z,98233.94
2023-05-08T13:30:54.261Z,98255.63
2023-05-08T13:33:21.629Z,98249.56
2023-05-08T13:35:48.634Z,98250.19
2023-05-08T13:38:16.165Z,98253.69
2023-05-08T13:40:43.249Z,98249.44
2023-05-08T13:43:10.860Z,98255.56
2023-05-08T13:45:37.957Z,98254.84
2023-05-08T13:48:05.639Z,98250.13
2023-05-08T13:50:32.964Z,98260.75
2023-05-08T13:53:00.529Z,98259.34
2023-05-08T13:55:27.924Z,98263.34
2023-05-08T13:57:55.344Z,98263.00
2023-05-08T14:00:22.715Z,98271.34
2023-05-08T14:02:52.322Z,98268.53
2023-05-08T14:05:20.914Z,98279.63
2023-05-08T14:07:48.032Z,98275.19
2023-05-08T14:10:16.894Z,98269.88
2023-05-08T14:12:44.470Z,98276.91
2023-05-08T14:15:12.610Z,98277.31
2023-05-08T14:17:40.243Z,98274.38
2023-05-08T14:20:08.680Z,98275.06
2023-05-08T14:22:37.060Z,98273.38
2023-05-08T14:25:04.534Z,98271.31
2023-05-08T14:27:33.072Z,98277.53
2023-05-08T14:30:00.477Z,98282.59
2023-05-08T14:32:27.765Z,98274.34
2023-05-08T14:34:55.379Z,98284.50
2023-05-08T14:37:22.876Z,98278.66
2023-05-08T14:39:53.736Z,98286.25
2023-05-08T14:42:23.282Z,98283.09
2023-05-08T14:44:51.682Z,98281.63
2023-05-08T14:47:19.090Z,98276.28
2023-05-08T14:49:46.840Z,98284.41
2023-05-08T14:52:13.884Z,98278.59
2023-05-08T14:54:41.313Z,98285.44
2023-05-08T14:57:08.874Z,98271.41
2023-05-08T14:59:36.116Z,98275.75
2023-05-08T15:02:03.556Z,98275.13
2023-05-08T15:04:30.695Z,98277.47
2023-05-08T15:06:57.745Z,98278.88
2023-05-08T15:09:24.869Z,98272.88
2023-05-08T15:11:52.466Z,98279.25
2023-05-08T15:14:19.627Z,98278.75
2023-05-08T15:16:47.101Z,98278.59
2023-05-08T15:19:14.338Z,98277.59
2023-05-08T15:21:41.470Z,98277.88
2023-05-08T15:24:08.897Z,98291.09
2023-05-08T15:26:36.435Z,98295.25
2023-05-08T15:29:03.476Z,98281.94
2023-05-08T15:31:30.800Z,98290.44
2023-05-08T15:33:57.878Z,98289.09
2023-05-08T15:36:25.398Z,98294.41
2023-05-08T15:38:54.224Z,98281.94
2023-05-08T15:41:21.609Z,98284.47
2023-05-08T15:43:48.907Z,98288.09
2023-05-08T15:46:16.369Z,98283.25
2023-05-08T15:48:44.192Z,98291.72
2023-05-08T15:51:11.427Z,98294.78
2023-05-08T15:53:38.580Z,98292.06
2023-05-08T15:56:06.488Z,98289.41
2023-05-08T15:58:34.335Z,98289.16
2023-05-08T16:01:01.486Z,98281.03
2023-05-08T16:03:28.712Z,98280.78
2023-05-08T16:05:56.292Z,98280.78
2023-05-08T16:08:23.666Z,98279.50
2023-05-08T16:10:51.111Z,98274.88
2023-05-08T16:13:18.467Z,98275.44
2023-05-08T16:15:45.654Z,98287.19
2023-05-08T16:18:13.336Z,98285.56
2023-05-08T16:20:41.983Z,98282.84
2023-05-08T16:23:09.623Z,98282.31
2023-05-08T16:25:36.759Z,98285.06
2023-05-08T16:28:04.478Z,98284.25
2023-05-08T16:30:32.005Z,98288.09
2023-05-08T16:32:59.560Z,98283.72
2023-05-08T16:35:26.734Z,98284.53
2023-05-08T16:37:54.203Z,98281.81
2023-05-08T16:40:21.373Z,98279.59
2023-05-08T16:42:48.440Z,98279.06
2023-05-08T16:45:15.697Z,98277.69
2023-05-08T16:47:43.320Z,98277.13
2023-05-08T16:50:11.320Z,98273.91
2023-05-08T16:52:38.693Z,98280.69
2023-05-08T16:55:06.607Z,98278.50
2023-05-08T16:57:33.784Z,98282.31
2023-05-08T17:00:01.157Z,98280.41
2023-05-08T17:02:28.687Z,98271.94
2023-05-08T17:04:56.409Z,98278.75
2023-05-08T17:07:23.763Z,98281.47
2023-05-08T17:09:55.606Z,98275.44
2023-05-08T17:12:23.615Z,98277.88
2023-05-08T17:14:50.728Z,98271.91
2023-05-08T17:17:18.251Z,98273.25
2023-05-08T17:19:45.660Z,98268.59
2023-05-08T17:22:13.316Z,98272.41
2023-05-08T17:24:40.601Z,98269.91
2023-05-08T17:27:08.312Z,98271.25
2023-05-08T17:29:35.980Z,98267.44
2023-05-08T17:32:03.462Z,98267.97
2023-05-08T17:34:30.709Z,98272.84
2023-05-08T17:36:57.810Z,98268.72
2023-05-08T17:39:25.239Z,98266.25
2023-05-08T17:41:53.750Z,98262.13
2023-05-08T17:44:21.092Z,98269.75
2023-05-08T17:46:48.569Z,98268.91
2023-05-08T17:49:19.097Z,98268.56
2023-05-08T17:51:46.865Z,98271.28
2023-05-08T17:54:14.393Z,98266.09
2023-05-08T17:56:41.796Z,98271.75
2023-05-08T17:59:08.952Z,98269.25
2023-05-08T18:01:35.993Z,98270.91
2023-05-08T18:04:02.984Z,98269.53
2023-05-08T18:06:30.240Z,98270.56
2023-05-08T18:08:57.626Z,98263.47
2023-05-08T18:11:25.603Z,98259.91
2023-05-08T18:13:53.176Z,98264.19
2023-05-08T18:16:21.493Z,98265.81
2023-05-08T18:18:49.383Z,98257.63
2023-05-08T18:21:16.773Z,98258.97
2023-05-08T18:23:44.360Z,98263.25
2023-05-08T18:26:15.437Z,98269.47
2023-05-08T18:28:43.140Z,98271.63
2023-05-08T18:31:10.905Z,98277.03
2023-05-08T18:33:38.687Z,98267.75
2023-05-08T18:36:06.957Z,98275.91
2023-05-08T18:38:34.395Z,98273.13
2023-05-08T18:41:05.947Z,98280.16
2023-05-08T18:43:33.667Z,98276.06
2023-05-08T18:46:07.948Z,98271.94
2023-05-08T18:48:35.983Z,98275.72
2023-05-08T18:51:03.200Z,98277.06
2023-05-08T18:53:33.702Z,98277.31
2023-05-08T18:56:02.653Z,98271.59
2023-05-08T18:58:30.491Z,98276.97
2023-05-08T19:00:58.368Z,98271.75
2023-05-08T19:03:25.919Z,98282.59
2023-05-08T19:05:54.675Z,98278.78
2023-05-08T19:08:21.922Z,98275.75
2023-05-08T19:10:48.977Z,98277.88
2023-05-08T19:13:16.129Z,98277.03
2023-05-08T19:15:43.301Z,98281.06
2023-05-08T19:18:10.975Z,98279.44
2023-05-08T19:20:38.236Z,98270.97
2023-05-08T19:23:05.453Z,98278.78
2023-05-08T19:25:32.957Z,98273.88
2023-05-08T19:27:59.976Z,98275.78
2023-05-08T19:30:27.394Z,98272.75
2023-05-08T19:32:54.792Z,98273.28
2023-05-08T19:35:22.160Z,98280.03
2023-05-08T19:37:49.346Z,98281.59
2023-05-08T19:40:17.201Z,98272.56
2023-05-08T19:42:45.758Z,98280.41
2023-05-08T19:45:13.627Z,98282.00
2023-05-08T19:47:40.990Z,98279.19
2023-05-08T19:50:11.706Z,98278.63
2023-05-08T19:52:38.949Z,98286.22
2023-05-08T19:55:06.774Z,98276.13
2023-05-08T19:57:34.393Z,98281.53
2023-05-08T20:00:01.714Z,98282.84
2023-05-08T20:02:32.278Z,98283.59
2023-05-08T20:07:29.362Z,98290.03
2023-05-08T20:09:56.836Z,98287.25
2023-05-08T20:12:24.063Z,98282.31
2023-05-08T20:14:52.740Z,98280.13
2023-05-08T20:17:20.210Z,98288.00
2023-05-08T20:19:47.358Z,98289.88
2023-05-08T20:22:14.630Z,98284.13
2023-05-08T20:24:41.884Z,98283.00
2023-05-08T20:27:08.958Z,98283.72
2023-05-08T20:29:36.253Z,98285.03
2023-05-08T20:32:03.412Z,98288.75
2023-05-08T20:34:30.923Z,98295.25
2023-05-08T20:36:58.842Z,98293.88
2023-05-08T20:39:25.973Z,98287.28
2023-05-08T20:41:53.459Z,98290.47
2023-05-08T20:44:20.424Z,98291.56
2023-05-08T20:46:47.774Z,98283.69
2023-05-08T20:49:16.829Z,98285.81
2023-05-08T20:51:44.180Z,98279.00
2023-05-08T20:54:11.856Z,98294.44
2023-05-08T20:56:39.834Z,98298.47
2023-05-08T20:59:07.284Z,98290.81
2023-05-08T21:01:34.435Z,98290.25
2023-05-08T21:04:01.911Z,98289.69
2023-05-08T21:06:28.985Z,98298.63
2023-05-08T21:08:57.467Z,98295.34
2023-05-08T21:11:24.966Z,98299.38
2023-05-08T21:13:51.988Z,98296.56
2023-05-08T21:16:19.713Z,98301.41
2023-05-08T21:18:47.121Z,98301.91
2023-05-08T21:21:18.067Z,98300.84
2023-05-08T21:23:45.420Z,98297.31
2023-05-08T21:26:12.801Z,98296.25
2023-05-08T21:28:40.514Z,98291.06
2023-05-08T21:31:07.453Z,98300.69
2023-05-08T21:33:35.042Z,98286.06
2023-05-08T21:40:20.952Z,98293.84
2023-05-08T21:42:48.386Z,98302.22
2023-05-08T21:45:15.891Z,98297.88
2023-05-08T21:47:43.397Z,98301.41
2023-05-08T21:50:11.097Z,98292.38
2023-05-08T21:52:38.402Z,98300.75
2023-05-08T21:55:08.284Z,98299.13
2023-05-08T21:57:36.013Z,98302.31
2023-05-08T22:00:05.403Z,98300.31
2023-05-08T22:02:32.898Z,98298.13
2023-05-08T22:05:00.304Z,98302.13
2023-05-08T22:07:27.414Z,98304.53
2023-05-08T22:09:54.414Z,98306.41
2023-05-08T22:12:21.619Z,98315.94
2023-05-08T22:14:48.853Z,98315.09
2023-05-08T22:17:16.119Z,98315.44
2023-05-08T22:19:44.077Z,98319.28
2023-05-08T22:22:11.188Z,98313.41
2023-05-08T22:24:38.460Z,98316.69
2023-05-08T22:27:05.853Z,98312.91
2023-05-08T22:29:32.796Z,98313.72
2023-05-08T22:32:00.019Z,98314.56
2023-05-08T22:34:27.310Z,98322.19
2023-05-08T22:36:54.373Z,98322.00
2023-05-08T22:39:22.263Z,98320.28
2023-05-08T22:41:49.420Z,98320.47
2023-05-08T22:44:16.538Z,98323.75
2023-05-08T22:46:45.929Z,98319.50
2023-05-08T22:49:13.250Z,98324.75
2023-05-08T22:51:40.608Z,98329.41
2023-05-08T22:54:07.921Z,98320.03
2023-05-08T22:56:37.836Z,98325.84
2023-05-08T22:59:05.817Z,98315.19
2023-05-08T23:01:32.952Z,98316.69
2023-05-08T23:04:00.175Z,98316.41
2023-05-08T23:06:27.917Z,98319.22
2023-05-08T23:08:55.670Z,98322.19
2023-05-08T23:11:22.684Z,98325.22
2023-05-08T23:13:50.264Z,98324.91
2023-05-08T23:16:17.342Z,98323.16
2023-05-08T23:18:45.075Z,98325.13
2023-05-08T23:21:12.577Z,98327.81
2023-05-08T23:23:39.577Z,98326.69
2023-05-08T23:26:06.986Z,98319.38
2023-05-08T23:28:34.964Z,98325.13
2023-05-08T23:31:02.738Z,98324.22
2023-05-08T23:33:30.324Z,98325.16
2023-05-08T23:36:00.758Z,98329.38
2023-05-08T23:38:27.885Z,98324.69
2023-05-08T23:40:55.426Z,98335.13
2023-05-08T23:43:22.511Z,98319.13
2023-05-08T23:45:50.503Z,98329.47
2023-05-08T23:48:17.824Z,98327.13
2023-05-08T23:50:44.904Z,98328.31
2023-05-08T23:53:13.105Z,98335.44
2023-05-08T23:55:40.342Z,98335.53
2023-05-08T23:58:07.688Z,98337.72
